sensor_id;sensor_type;location;lat;lon;timestamp;pressure;altitude;pressure_sealevel;temperature;humidity
14232;BME280;7200;52.194;9.900;2024-02-21T00:00:38;100832.50;;;8.58;100.00
14232;BME280;7200;52.194;9.900;2024-02-21T00:03:04;100830.84;;;8.54;100.00
14232;BME280;7200;52.194;9.900;2024-02-21T00:05:30;100820.34;;;8.53;100.00
14232;BME280;7200;52.194;9.900;2024-02-21T00:07:55;100844.94;;;8.52;100.00
14232;BME280;7200;52.194;9.900;2024-02-21T00:10:20;100838.72;;;8.54;100.00
14232;BME280;7200;52.194;9.900;2024-02-21T00:12:46;100829.88;;;8.58;100.00
14232;BME280;7200;52.194;9.900;2024-02-21T00:15:11;100823.03;;;8.51;100.00
14232;BME280;7200;52.194;9.900;2024-02-21T00:17:37;100816.00;;;8.52;100.00
14232;BME280;7200;52.194;9.900;2024-02-21T00:20:02;100815.97;;;8.53;100.00
14232;BME280;7200;52.194;9.900;2024-02-21T00:22:27;100808.97;;;8.52;100.00
14232;BME280;7200;52.194;9.900;2024-02-21T00:24:56;100807.19;;;8.53;100.00
14232;BME280;7200;52.194;9.900;2024-02-21T00:27:23;100809.03;;;8.49;100.00
14232;BME280;7200;52.194;9.900;2024-02-21T00:29:48;100809.03;;;8.49;100.00
14232;BME280;7200;52.194;9.900;2024-02-21T00:32:14;100809.91;;;8.51;100.00
14232;BME280;7200;52.194;9.900;2024-02-21T00:34:39;100793.25;;;8.49;100.00
14232;BME280;7200;52.194;9.900;2024-02-21T00:37:04;100793.25;;;8.49;100.00
14232;BME280;7200;52.194;9.900;2024-02-21T00:39:29;100783.63;;;8.50;100.00
14232;BME280;7200;52.194;9.900;2024-02-21T00:41:55;100792.38;;;8.50;100.00
14232;BME280;7200;52.194;9.900;2024-02-21T00:44:20;100795.81;;;8.54;100.00
14232;BME280;7200;52.194;9.900;2024-02-21T00:46:45;100786.13;;;8.54;100.00
14232;BME280;7200;52.194;9.900;2024-02-21T00:49:12;100787.13;;;8.49;100.00
14232;BME280;7200;52.194;9.900;2024-02-21T00:51:37;100777.53;;;8.48;100.00
14232;BME280;7200;52.194;9.900;2024-02-21T00:54:03;100788.75;;;8.56;100.00
14232;BME280;7200;52.194;9.900;2024-02-21T00:56:28;100788.75;;;8.56;100.00
14232;BME280;7200;52.194;9.900;2024-02-21T00:58:54;100788.00;;;8.49;100.00
14232;BME280;7200;52.194;9.900;2024-02-21T01:01:24;100798.41;;;8.55;100.00
14232;BME280;7200;52.194;9.900;2024-02-21T01:03:50;100791.50;;;8.51;100.00
14232;BME280;7200;52.194;9.900;2024-02-21T01:06:16;100781.69;;;8.58;100.00
14232;BME280;7200;52.194;9.900;2024-02-21T01:08:41;100789.59;;;8.56;100.00
14232;BME280;7200;52.194;9.900;2024-02-21T01:11:07;100776.38;;;8.60;100.00
14232;BME280;7200;52.194;9.900;2024-02-21T01:13:32;100778.97;;;8.63;100.00
14232;BME280;7200;52.194;9.900;2024-02-21T01:15:58;100769.38;;;8.58;100.00
14232;BME280;7200;52.194;9.900;2024-02-21T01:18:23;100761.50;;;8.58;100.00
14232;BME280;7200;52.194;9.900;2024-02-21T01:20:48;100757.81;;;8.66;100.00
14232;BME280;7200;52.194;9.900;2024-02-21T01:23:13;100758.78;;;8.63;100.00
14232;BME280;7200;52.194;9.900;2024-02-21T01:25:39;100763.25;;;8.60;100.00
14232;BME280;7200;52.194;9.900;2024-02-21T01:28:04;100753.66;;;8.57;100.00
14232;BME280;7200;52.194;9.900;2024-02-21T01:30:29;100745.47;;;8.69;100.00
14232;BME280;7200;52.194;9.900;2024-02-21T01:32:55;100743.00;;;8.63;100.00
14232;BME280;7200;52.194;9.900;2024-02-21T01:35:20;100733.28;;;8.67;100.00
14232;BME280;7200;52.194;9.900;2024-02-21T01:37:45;100738.59;;;8.64;100.00
14232;BME280;7200;52.194;9.900;2024-02-21T01:40:11;100735.13;;;8.62;100.00
14232;BME280;7200;52.194;9.900;2024-02-21T01:42:39;100734.19;;;8.64;100.00
14232;BME280;7200;52.194;9.900;2024-02-21T01:45:06;100735.25;;;8.57;100.00
14232;BME280;7200;52.194;9.900;2024-02-21T01:47:31;100723.75;;;8.61;100.00
14232;BME280;7200;52.194;9.900;2024-02-21T01:49:56;100724.59;;;8.63;100.00
14232;BME280;7200;52.194;9.900;2024-02-21T01:52:22;100724.66;;;8.60;100.00
14232;BME280;7200;52.194;9.900;2024-02-21T01:54:47;100725.69;;;8.53;100.00
14232;BME280;7200;52.194;9.900;2024-02-21T01:57:13;100732.66;;;8.55;100.00
14232;BME280;7200;52.194;9.900;2024-02-21T01:59:39;100738.84;;;8.53;100.00
14232;BME280;7200;52.194;9.900;2024-02-21T02:02:04;100734.53;;;8.50;100.00
14232;BME280;7200;52.194;9.900;2024-02-21T02:04:30;100727.28;;;8.60;100.00
14232;BME280;7200;52.194;9.900;2024-02-21T02:06:55;100724.66;;;8.58;100.00
14232;BME280;7200;52.194;9.900;2024-02-21T02:09:20;100724.75;;;8.57;100.00
14232;BME280;7200;52.194;9.900;2024-02-21T02:11:46;100723.00;;;8.56;100.00
14232;BME280;7200;52.194;9.900;2024-02-21T02:14:11;100714.03;;;8.65;100.00
14232;BME280;7200;52.194;9.900;2024-02-21T02:16:37;100709.66;;;8.64;100.00
14232;BME280;7200;52.194;9.900;2024-02-21T02:19:02;100700.16;;;8.58;100.00
14232;BME280;7200;52.194;9.900;2024-02-21T02:21:36;100687.97;;;8.54;100.00
14232;BME280;7200;52.194;9.900;2024-02-21T02:24:04;100688.75;;;8.59;100.00
14232;BME280;7200;52.194;9.900;2024-02-21T02:26:30;100694.78;;;8.63;100.00
14232;BME280;7200;52.194;9.900;2024-02-21T02:28:55;100688.59;;;8.65;100.00
14232;BME280;7200;52.194;9.900;2024-02-21T02:31:20;100684.97;;;8.69;100.00
14232;BME280;7200;52.194;9.900;2024-02-21T02:33:46;100690.03;;;8.77;100.00
14232;BME280;7200;52.194;9.900;2024-02-21T02:36:11;100695.25;;;8.80;100.00
14232;BME280;7200;52.194;9.900;2024-02-21T02:38:36;100678.63;;;8.78;100.00
14232;BME280;7200;52.194;9.900;2024-02-21T02:41:02;100674.97;;;8.84;100.00
14232;BME280;7200;52.194;9.900;2024-02-21T02:43:27;100668.69;;;8.89;100.00
14232;BME280;7200;52.194;9.900;2024-02-21T02:45:52;100654.38;;;8.67;100.00
14232;BME280;7200;52.194;9.900;2024-02-21T02:48:18;100655.69;;;8.83;100.00
14232;BME280;7200;52.194;9.900;2024-02-21T02:50:45;100648.66;;;8.84;100.00
14232;BME280;7200;52.194;9.900;2024-02-21T02:53:10;100652.56;;;8.69;100.00
14232;BME280;7200;52.194;9.900;2024-02-21T02:55:36;100650.75;;;8.71;100.00
14232;BME280;7200;52.194;9.900;2024-02-21T02:58:01;100645.47;;;8.71;100.00
14232;BME280;7200;52.194;9.900;2024-02-21T03:00:26;100645.09;;;8.86;100.00
14232;BME280;7200;52.194;9.900;2024-02-21T03:02:52;100646.19;;;8.77;100.00
14232;BME280;7200;52.194;9.900;2024-02-21T03:05:20;100635.44;;;8.85;100.00
14232;BME280;7200;52.194;9.900;2024-02-21T03:07:46;100645.94;;;8.87;100.00
14232;BME280;7200;52.194;9.900;2024-02-21T03:10:12;100634.00;;;8.73;100.00
14232;BME280;7200;52.194;9.900;2024-02-21T03:12:38;100634.84;;;8.75;100.00
14232;BME280;7200;52.194;9.900;2024-02-21T03:15:04;100640.31;;;8.66;100.00
14232;BME280;7200;52.194;9.900;2024-02-21T03:17:30;100623.72;;;8.64;100.00
14232;BME280;7200;52.194;9.900;2024-02-21T03:19:57;100628.97;;;8.64;100.00
14232;BME280;7200;52.194;9.900;2024-02-21T03:22:22;100628.03;;;8.68;100.00
14232;BME280;7200;52.194;9.900;2024-02-21T03:24:48;100621.78;;;8.72;100.00
14232;BME280;7200;52.194;9.900;2024-02-21T03:27:13;100604.00;;;8.81;100.00
14232;BME280;7200;52.194;9.900;2024-02-21T03:29:38;100606.81;;;8.74;100.00
14232;BME280;7200;52.194;9.900;2024-02-21T03:32:04;100595.94;;;8.87;100.00
14232;BME280;7200;52.194;9.900;2024-02-21T03:34:29;100582.13;;;8.80;100.00
14232;BME280;7200;52.194;9.900;2024-02-21T03:36:54;100580.34;;;8.81;100.00
14232;BME280;7200;52.194;9.900;2024-02-21T03:39:19;100568.00;;;8.83;100.00
14232;BME280;7200;52.194;9.900;2024-02-21T03:41:46;100565.50;;;8.78;100.00
14232;BME280;7200;52.194;9.900;2024-02-21T03:44:11;100558.41;;;8.82;100.00
14232;BME280;7200;52.194;9.900;2024-02-21T03:46:37;100547.13;;;8.76;100.00
14232;BME280;7200;52.194;9.900;2024-02-21T03:49:02;100535.78;;;8.74;100.00
14232;BME280;7200;52.194;9.900;2024-02-21T03:51:27;100540.94;;;8.77;100.00
14232;BME280;7200;52.194;9.900;2024-02-21T03:53:52;100545.38;;;8.75;100.00
14232;BME280;7200;52.194;9.900;2024-02-21T03:56:18;100538.28;;;8.79;100.00
14232;BME280;7200;52.194;9.900;2024-02-21T03:58:43;100534.97;;;8.72;100.00
14232;BME280;7200;52.194;9.900;2024-02-21T04:01:08;100540.19;;;8.74;100.00
14232;BME280;7200;52.194;9.900;2024-02-21T04:03:34;100523.31;;;8.81;100.00
14232;BME280;7200;52.194;9.900;2024-02-21T04:05:59;100513.69;;;8.82;100.00
14232;BME280;7200;52.194;9.900;2024-02-21T04:08:25;100518.97;;;8.80;100.00
14232;BME280;7200;52.194;9.900;2024-02-21T04:10:51;100531.34;;;8.76;100.00
14232;BME280;7200;52.194;9.900;2024-02-21T04:13:16;100532.78;;;8.88;100.00
14232;BME280;7200;52.194;9.900;2024-02-21T04:15:41;100537.97;;;8.91;100.00
14232;BME280;7200;52.194;9.900;2024-02-21T04:18:06;100526.63;;;8.89;100.00
14232;BME280;7200;52.194;9.900;2024-02-21T04:20:32;100557.47;;;8.83;100.00
14232;BME280;7200;52.194;9.900;2024-02-21T04:22:58;100550.34;;;8.88;100.00
14232;BME280;7200;52.194;9.900;2024-02-21T04:25:23;100550.41;;;8.85;100.00
14232;BME280;7200;52.194;9.900;2024-02-21T04:27:48;100561.03;;;8.82;100.00
14232;BME280;7200;52.194;9.900;2024-02-21T04:30:14;100570.66;;;8.81;100.00
14232;BME280;7200;52.194;9.900;2024-02-21T04:32:39;100561.03;;;8.82;100.00
14232;BME280;7200;52.194;9.900;2024-02-21T04:35:06;100570.59;;;8.84;100.00
14232;BME280;7200;52.194;9.900;2024-02-21T04:37:32;100565.31;;;8.86;100.00
14232;BME280;7200;52.194;9.900;2024-02-21T04:39:57;100561.97;;;8.79;100.00
14232;BME280;7200;52.194;9.900;2024-02-21T04:42:22;100576.75;;;8.83;100.00
14232;BME280;7200;52.194;9.900;2024-02-21T04:44:48;100562.56;;;8.89;100.00
14232;BME280;7200;52.194;9.900;2024-02-21T04:47:13;100563.72;;;8.79;100.00
14232;BME280;7200;52.194;9.900;2024-02-21T04:49:39;100567.25;;;8.77;100.00
14232;BME280;7200;52.194;9.900;2024-02-21T04:52:04;100557.53;;;8.81;100.00
14232;BME280;7200;52.194;9.900;2024-02-21T04:54:29;100571.50;;;8.83;100.00
14232;BME280;7200;52.194;9.900;2024-02-21T04:56:55;100572.31;;;8.85;100.00
14232;BME280;7200;52.194;9.900;2024-02-21T04:59:20;100575.13;;;8.79;100.00
14232;BME280;7200;52.194;9.900;2024-02-21T05:01:45;100561.06;;;8.80;100.00
14232;BME280;7200;52.194;9.900;2024-02-21T05:04:12;100574.00;;;8.88;100.00
14232;BME280;7200;52.194;9.900;2024-02-21T05:06:43;100562.72;;;8.84;100.00
14232;BME280;7200;52.194;9.900;2024-02-21T05:09:09;100570.56;;;8.86;100.00
14232;BME280;7200;52.194;9.900;2024-02-21T05:11:35;100568.84;;;8.83;100.00
14232;BME280;7200;52.194;9.900;2024-02-21T05:14:01;100568.16;;;8.78;100.00
14232;BME280;7200;52.194;9.900;2024-02-21T05:16:26;100575.91;;;8.83;100.00
14232;BME280;7200;52.194;9.900;2024-02-21T05:18:51;100569.00;;;8.79;100.00
14232;BME280;7200;52.194;9.900;2024-02-21T05:21:17;100558.50;;;8.77;100.00
14232;BME280;7200;52.194;9.900;2024-02-21T05:23:42;100568.97;;;8.80;100.00
14232;BME280;7200;52.194;9.900;2024-02-21T05:26:07;100562.63;;;8.87;100.00
14232;BME280;7200;52.194;9.900;2024-02-21T05:28:33;100568.22;;;8.75;100.00
14232;BME280;7200;52.194;9.900;2024-02-21T05:30:58;100569.69;;;8.85;100.00
14232;BME280;7200;52.194;9.900;2024-02-21T05:33:24;100561.94;;;8.81;100.00
14232;BME280;7200;52.194;9.900;2024-02-21T05:35:49;100558.53;;;8.75;100.00
14232;BME280;7200;52.194;9.900;2024-02-21T05:38:15;100565.50;;;8.78;100.00
14232;BME280;7200;52.194;9.900;2024-02-21T05:40:40;100559.25;;;8.82;100.00
14232;BME280;7200;52.194;9.900;2024-02-21T05:43:07;100542.72;;;8.77;100.00
14232;BME280;7200;52.194;9.900;2024-02-21T05:45:33;100552.19;;;8.84;100.00
14232;BME280;7200;52.194;9.900;2024-02-21T05:47:58;100554.91;;;8.80;100.00
14232;BME280;7200;52.194;9.900;2024-02-21T05:50:23;100547.69;;;8.88;100.00
14232;BME280;7200;52.194;9.900;2024-02-21T05:52:53;100540.00;;;8.82;100.00
14232;BME280;7200;52.194;9.900;2024-02-21T05:55:19;100544.25;;;8.86;100.00
14232;BME280;7200;52.194;9.900;2024-02-21T05:57:44;100540.94;;;8.77;100.00
14232;BME280;7200;52.194;9.900;2024-02-21T06:00:10;100539.22;;;8.78;100.00
14232;BME280;7200;52.194;9.900;2024-02-21T06:02:35;100531.31;;;8.78;100.00
14232;BME280;7200;52.194;9.900;2024-02-21T06:05:00;100531.41;;;8.73;100.00
14232;BME280;7200;52.194;9.900;2024-02-21T06:07:26;100541.16;;;8.70;100.00
14232;BME280;7200;52.194;9.900;2024-02-21T06:09:51;100521.50;;;8.83;100.00
14232;BME280;7200;52.194;9.900;2024-02-21T06:12:16;100521.69;;;8.77;100.00
14232;BME280;7200;52.194;9.900;2024-02-21T06:14:41;100528.13;;;8.67;100.00
14232;BME280;7200;52.194;9.900;2024-02-21T06:17:07;100516.81;;;8.63;100.00
14232;BME280;7200;52.194;9.900;2024-02-21T06:19:32;100512.19;;;8.71;100.00
14232;BME280;7200;52.194;9.900;2024-02-21T06:21:57;100515.97;;;8.63;100.00
14232;BME280;7200;52.194;9.900;2024-02-21T06:24:23;100514.97;;;8.67;100.00
14232;BME280;7200;52.194;9.900;2024-02-21T06:26:48;100527.31;;;8.63;100.00
14232;BME280;7200;52.194;9.900;2024-02-21T06:29:13;100516.59;;;8.71;100.00
14232;BME280;7200;52.194;9.900;2024-02-21T06:31:40;100516.84;;;8.62;100.00
14232;BME280;7200;52.194;9.900;2024-02-21T06:34:05;100511.78;;;8.54;100.00
14232;BME280;7200;52.194;9.900;2024-02-21T06:36:30;100512.41;;;8.64;100.00
14232;BME280;7200;52.194;9.900;2024-02-21T06:38:56;100506.53;;;8.54;100.00
14232;BME280;7200;52.194;9.900;2024-02-21T06:41:21;100504.41;;;8.68;100.00
14232;BME280;7200;52.194;9.900;2024-02-21T06:43:47;100493.88;;;8.68;100.00
14232;BME280;7200;52.194;9.900;2024-02-21T06:46:25;100488.00;;;8.58;100.00
14232;BME280;7200;52.194;9.900;2024-02-21T06:48:51;100486.50;;;8.50;100.00
14232;BME280;7200;52.194;9.900;2024-02-21T06:51:16;100494.38;;;8.50;100.00
14232;BME280;7200;52.194;9.900;2024-02-21T06:53:41;100487.59;;;8.39;100.00
14232;BME280;7200;52.194;9.900;2024-02-21T06:56:09;100488.63;;;8.34;100.00
14232;BME280;7200;52.194;9.900;2024-02-21T06:58:34;100491.22;;;8.35;100.00
14232;BME280;7200;52.194;9.900;2024-02-21T07:01:00;100500.84;;;8.36;100.00
14232;BME280;7200;52.194;9.900;2024-02-21T07:03:25;100506.91;;;8.38;100.00
14232;BME280;7200;52.194;9.900;2024-02-21T07:05:51;100515.84;;;8.31;100.00
14232;BME280;7200;52.194;9.900;2024-02-21T07:08:16;100517.50;;;8.35;100.00
14232;BME280;7200;52.194;9.900;2024-02-21T07:10:41;100509.50;;;8.40;100.00
14232;BME280;7200;52.194;9.900;2024-02-21T07:13:07;100529.56;;;8.46;100.00
14232;BME280;7200;52.194;9.900;2024-02-21T07:15:32;100528.44;;;8.54;100.00
14232;BME280;7200;52.194;9.900;2024-02-21T07:17:58;100523.19;;;8.53;100.00
14232;BME280;7200;52.194;9.900;2024-02-21T07:20:24;100522.13;;;8.60;100.00
14232;BME280;7200;52.194;9.900;2024-02-21T07:22:49;100524.09;;;8.53;100.00
14232;BME280;7200;52.194;9.900;2024-02-21T07:25:14;100526.56;;;8.58;100.00
14232;BME280;7200;52.194;9.900;2024-02-21T07:27:40;100522.28;;;8.55;100.00
14232;BME280;7200;52.194;9.900;2024-02-21T07:30:06;100516.91;;;8.58;100.00
14232;BME280;7200;52.194;9.900;2024-02-21T07:32:31;100514.28;;;8.58;100.00
14232;BME280;7200;52.194;9.900;2024-02-21T07:34:57;100512.34;;;8.67;100.00
14232;BME280;7200;52.194;9.900;2024-02-21T07:37:22;100509.16;;;8.54;100.00
14232;BME280;7200;52.194;9.900;2024-02-21T07:39:47;100511.59;;;8.62;100.00
14232;BME280;7200;52.194;9.900;2024-02-21T07:42:13;100510.03;;;8.54;100.00
14232;BME280;7200;52.194;9.900;2024-02-21T07:44:38;100506.25;;;8.65;100.00
14232;BME280;7200;52.194;9.900;2024-02-21T07:47:03;100514.28;;;8.58;100.00
14232;BME280;7200;52.194;9.900;2024-02-21T07:49:29;100516.41;;;8.77;100.00
14232;BME280;7200;52.194;9.900;2024-02-21T07:51:54;100518.38;;;8.70;100.00
14232;BME280;7200;52.194;9.900;2024-02-21T07:54:19;100522.81;;;8.68;100.00
14232;BME280;7200;52.194;9.900;2024-02-21T07:56:45;100521.16;;;8.64;100.00
14232;BME280;7200;52.194;9.900;2024-02-21T07:59:10;100521.06;;;8.67;100.00
14232;BME280;7200;52.194;9.900;2024-02-21T08:01:35;100516.72;;;8.66;100.00
14232;BME280;7200;52.194;9.900;2024-02-21T08:04:00;100508.00;;;8.64;100.00
14232;BME280;7200;52.194;9.900;2024-02-21T08:06:27;100516.47;;;8.75;100.00
14232;BME280;7200;52.194;9.900;2024-02-21T08:08:53;100517.50;;;8.70;100.00
14232;BME280;7200;52.194;9.900;2024-02-21T08:11:18;100516.41;;;8.77;100.00
14232;BME280;7200;52.194;9.900;2024-02-21T08:13:43;100514.72;;;8.76;100.00
14232;BME280;7200;52.194;9.900;2024-02-21T08:16:09;100519.78;;;8.82;100.00
14232;BME280;7200;52.194;9.900;2024-02-21T08:18:34;100509.38;;;8.77;100.00
14232;BME280;7200;52.194;9.900;2024-02-21T08:21:03;100520.53;;;8.87;100.00
14232;BME280;7200;52.194;9.900;2024-02-21T08:23:29;100510.06;;;8.86;100.00
14232;BME280;7200;52.194;9.900;2024-02-21T08:25:54;100518.72;;;8.89;100.00
14232;BME280;7200;52.194;9.900;2024-02-21T08:28:19;100516.94;;;8.90;100.00
14232;BME280;7200;52.194;9.900;2024-02-21T08:30:45;100509.09;;;8.88;100.00
14232;BME280;7200;52.194;9.900;2024-02-21T08:33:13;100507.84;;;9.02;100.00
14232;BME280;7200;52.194;9.900;2024-02-21T08:35:38;100509.59;;;9.01;100.00
14232;BME280;7200;52.194;9.900;2024-02-21T08:38:03;100505.75;;;9.13;100.00
14232;BME280;7200;52.194;9.900;2024-02-21T08:40:29;100506.41;;;9.21;100.00
14232;BME280;7200;52.194;9.900;2024-02-21T08:42:54;100509.47;;;9.06;100.00
14232;BME280;7200;52.194;9.900;2024-02-21T08:45:19;100502.19;;;9.15;100.00
14232;BME280;7200;52.194;9.900;2024-02-21T08:47:45;100499.41;;;9.20;100.00
14232;BME280;7200;52.194;9.900;2024-02-21T08:50:11;100495.97;;;9.18;100.00
14232;BME280;7200;52.194;9.900;2024-02-21T08:52:37;100491.31;;;9.26;100.00
14232;BME280;7200;52.194;9.900;2024-02-21T08:55:02;100485.69;;;9.39;100.00
14232;BME280;7200;52.194;9.900;2024-02-21T08:57:27;100478.81;;;9.34;100.00
14232;BME280;7200;52.194;9.900;2024-02-21T08:59:53;100464.31;;;9.49;100.00
14232;BME280;7200;52.194;9.900;2024-02-21T09:02:18;100473.09;;;9.48;100.00
14232;BME280;7200;52.194;9.900;2024-02-21T09:04:44;100469.97;;;9.64;100.00
14232;BME280;7200;52.194;9.900;2024-02-21T09:07:10;100473.72;;;9.57;100.00
14232;BME280;7200;52.194;9.900;2024-02-21T09:09:35;100469.84;;;9.40;100.00
14232;BME280;7200;52.194;9.900;2024-02-21T09:12:00;100467.09;;;9.43;100.00
14232;BME280;7200;52.194;9.900;2024-02-21T09:14:34;100473.19;;;9.45;100.00
14232;BME280;7200;52.194;9.900;2024-02-21T09:16:59;100478.53;;;9.44;100.00
14232;BME280;7200;52.194;9.900;2024-02-21T09:19:24;100468.88;;;9.43;100.00
14232;BME280;7200;52.194;9.900;2024-02-21T09:21:50;100469.56;;;9.49;100.00
14232;BME280;7200;52.194;9.900;2024-02-21T09:24:15;100471.16;;;9.55;100.00
14232;BME280;7200;52.194;9.900;2024-02-21T09:26:40;100474.69;;;9.54;100.00
14232;BME280;7200;52.194;9.900;2024-02-21T09:29:06;100480.50;;;9.64;100.00
14232;BME280;7200;52.194;9.900;2024-02-21T09:31:31;100477.22;;;9.57;100.00
14232;BME280;7200;52.194;9.900;2024-02-21T09:33:56;100476.72;;;9.72;100.00
14232;BME280;7200;52.194;9.900;2024-02-21T09:36:22;100475.28;;;9.62;100.00
14232;BME280;7200;52.194;9.900;2024-02-21T09:38:47;100461.94;;;9.68;100.00
14232;BME280;7200;52.194;9.900;2024-02-21T09:41:27;100468.31;;;9.61;100.00
14232;BME280;7200;52.194;9.900;2024-02-21T09:43:53;100464.75;;;9.62;100.00
14232;BME280;7200;52.194;9.900;2024-02-21T09:46:23;100465.91;;;9.82;100.00
14232;BME280;7200;52.194;9.900;2024-02-21T09:49:49;100467.09;;;9.98;100.00
14232;BME280;7200;52.194;9.900;2024-02-21T09:51:57;100459.09;;;10.01;100.00
14232;BME280;7200;52.194;9.900;2024-02-21T09:54:25;100454.84;;;9.97;100.00
14232;BME280;7200;52.194;9.900;2024-02-21T09:56:52;100464.91;;;9.84;100.00
14232;BME280;7200;52.194;9.900;2024-02-21T09:59:18;100464.44;;;9.98;100.00
14232;BME280;7200;52.194;9.900;2024-02-21T10:01:43;100462.28;;;9.84;100.00
14232;BME280;7200;52.194;9.900;2024-02-21T10:04:12;100458.13;;;10.04;100.00
14232;BME280;7200;52.194;9.900;2024-02-21T10:06:37;100452.84;;;10.04;100.00
14232;BME280;7200;52.194;9.900;2024-02-21T10:09:06;100456.94;;;10.12;100.00
14232;BME280;7200;52.194;9.900;2024-02-21T10:11:31;100461.63;;;10.04;100.00
14232;BME280;7200;52.194;9.900;2024-02-21T10:14:07;100454.78;;;9.99;100.00
14232;BME280;7200;52.194;9.900;2024-02-21T10:16:33;100458.19;;;10.02;100.00
14232;BME280;7200;52.194;9.900;2024-02-21T10:19:02;100461.19;;;10.17;100.00
14232;BME280;7200;52.194;9.900;2024-02-21T10:21:31;100453.69;;;10.06;100.00
14232;BME280;7200;52.194;9.900;2024-02-21T10:23:57;100451.59;;;10.16;100.00
14232;BME280;7200;52.194;9.900;2024-02-21T10:26:22;100447.13;;;10.43;100.00
14232;BME280;7200;52.194;9.900;2024-02-21T10:28:47;100443.16;;;10.56;100.00
14232;BME280;7200;52.194;9.900;2024-02-21T10:31:27;100435.53;;;10.72;100.00
14232;BME280;7200;52.194;9.900;2024-02-21T10:34:02;100422.09;;;10.55;100.00
14232;BME280;7200;52.194;9.900;2024-02-21T10:36:28;100430.59;;;10.63;100.00
14232;BME280;7200;52.194;9.900;2024-02-21T10:38:54;100420.28;;;10.80;100.00
14232;BME280;7200;52.194;9.900;2024-02-21T10:41:20;100411.63;;;10.77;100.00
14232;BME280;7200;52.194;9.900;2024-02-21T10:43:53;100404.44;;;10.80;100.00
14232;BME280;7200;52.194;9.900;2024-02-21T10:46:21;100396.28;;;10.86;100.00
14232;BME280;7200;52.194;9.900;2024-02-21T10:48:48;100392.19;;;11.01;100.00
14232;BME280;7200;52.194;9.900;2024-02-21T10:51:27;100384.88;;;10.86;100.00
14232;BME280;7200;52.194;9.900;2024-02-21T10:54:04;100391.94;;;10.85;100.00
14232;BME280;7200;52.194;9.900;2024-02-21T10:56:32;100392.97;;;10.81;100.00
14232;BME280;7200;52.194;9.900;2024-02-21T10:59:03;100379.84;;;10.80;100.00
14232;BME280;7200;52.194;9.900;2024-02-21T11:01:29;100381.09;;;10.69;100.00
14232;BME280;7200;52.194;9.900;2024-02-21T11:04:07;100386.97;;;10.78;100.00
14232;BME280;7200;52.194;9.900;2024-02-21T11:06:35;100370.03;;;10.60;100.00
14232;BME280;7200;52.194;9.900;2024-02-21T11:09:06;100366.50;;;10.61;100.00
14232;BME280;7200;52.194;9.900;2024-02-21T11:11:35;100372.31;;;10.69;100.00
14232;BME280;7200;52.194;9.900;2024-02-21T11:14:18;100372.81;;;10.79;100.00
14232;BME280;7200;52.194;9.900;2024-02-21T11:16:44;100368.75;;;10.94;100.00
14232;BME280;7200;52.194;9.900;2024-02-21T11:19:19;100358.84;;;10.77;100.00
14232;BME280;7200;52.194;9.900;2024-02-21T11:21:45;100348.22;;;10.78;100.00
14232;BME280;7200;52.194;9.900;2024-02-21T11:24:11;100348.38;;;10.74;100.00
14232;BME280;7200;52.194;9.900;2024-02-21T11:26:40;100336.47;;;10.87;100.00
14232;BME280;7200;52.194;9.900;2024-02-21T11:29:07;100323.63;;;10.78;100.00
14232;BME280;7200;52.194;9.900;2024-02-21T11:31:44;100334.31;;;10.97;100.00
14232;BME280;7200;52.194;9.900;2024-02-21T11:34:12;100326.19;;;11.01;100.00
14232;BME280;7200;52.194;9.900;2024-02-21T11:36:52;100327.09;;;11.22;100.00
14232;BME280;7200;52.194;9.900;2024-02-21T11:39:19;100311.03;;;11.28;100.00
14232;BME280;7200;52.194;9.900;2024-02-21T11:41:46;100310.72;;;11.14;100.00
14232;BME280;7200;52.194;9.900;2024-02-21T11:44:11;100309.69;;;11.18;100.00
14232;BME280;7200;52.194;9.900;2024-02-21T11:46:37;100310.34;;;11.23;100.00
14232;BME280;7200;52.194;9.900;2024-02-21T11:49:03;100298.53;;;11.12;100.00
14232;BME280;7200;52.194;9.900;2024-02-21T11:51:28;100295.91;;;11.32;100.00
14232;BME280;7200;52.194;9.900;2024-02-21T11:53:54;100284.09;;;11.41;100.00
14232;BME280;7200;52.194;9.900;2024-02-21T11:56:19;100279.22;;;11.52;100.00
14232;BME280;7200;52.194;9.900;2024-02-21T11:58:49;100285.75;;;11.43;100.00
14232;BME280;7200;52.194;9.900;2024-02-21T12:01:14;100274.09;;;11.06;100.00
14232;BME280;7200;52.194;9.900;2024-02-21T12:03:40;100273.97;;;11.30;100.00
14232;BME280;7200;52.194;9.900;2024-02-21T12:06:07;100261.38;;;11.37;100.00
14232;BME280;7200;52.194;9.900;2024-02-21T12:08:42;100257.22;;;11.72;100.00
14232;BME280;7200;52.194;9.900;2024-02-21T12:11:21;100248.97;;;11.59;100.00
14232;BME280;7200;52.194;9.900;2024-02-21T12:14:03;100249.28;;;11.72;100.00
14232;BME280;7200;52.194;9.900;2024-02-21T12:16:32;100234.50;;;11.47;100.00
14232;BME280;7200;52.194;9.900;2024-02-21T12:19:02;100227.38;;;11.29;100.00
14232;BME280;7200;52.194;9.900;2024-02-21T12:21:35;100234.44;;;11.28;100.00
14232;BME280;7200;52.194;9.900;2024-02-21T12:26:39;100233.25;;;11.15;100.00
14232;BME280;7200;52.194;9.900;2024-02-21T12:29:04;100227.88;;;11.37;100.00
14232;BME280;7200;52.194;9.900;2024-02-21T12:31:30;100225.44;;;11.12;100.00
14232;BME280;7200;52.194;9.900;2024-02-21T12:33:55;100220.19;;;11.33;100.00
14232;BME280;7200;52.194;9.900;2024-02-21T12:36:21;100224.78;;;11.68;100.00
14232;BME280;7200;52.194;9.900;2024-02-21T12:38:46;100211.91;;;11.61;100.00
14232;BME280;7200;52.194;9.900;2024-02-21T12:41:14;100212.66;;;11.44;100.00
14232;BME280;7200;52.194;9.900;2024-02-21T12:43:39;100212.88;;;11.58;100.00
14232;BME280;7200;52.194;9.900;2024-02-21T12:46:05;100209.28;;;11.20;100.00
14232;BME280;7200;52.194;9.900;2024-02-21T12:48:32;100202.81;;;11.27;100.00
14232;BME280;7200;52.194;9.900;2024-02-21T12:50:58;100201.63;;;11.34;100.00
14232;BME280;7200;52.194;9.900;2024-02-21T12:53:23;100194.81;;;11.49;100.00
14232;BME280;7200;52.194;9.900;2024-02-21T12:55:49;100195.06;;;11.43;100.00